Terminal Aerodrome Forecast
Issued by NWS

Home | Current Version | Previous Version | Text Only | Print | Product List | Glossary On
Versions: 1 2 3 4 5 6 7 8 9 10 11 12 13 14 15 16
000
FTUS42 KFFC 231731
TAFRYY
TAF
KRYY 231731Z 2318/2418 07012G22KT P6SM FEW050 SCT250
     FM232200 13009KT P6SM SCT050
     FM240900 13005KT P6SM BKN020 BKN050
     FM241600 14007KT P6SM FEW020 BKN040=

USA.gov is the U.S. government's official web portal to all federal, state and local government web resources and services.